Munising, Michigan
Current Conditions -  °F | °C
As of 3:45 PM on Thursday 23 Oct 2014 (Local Time) from KSAW Reporting Station
Overcast Overcast  
Wind Chill: 50°   Ceiling: 6500
Heat Index: 50°   Visibility: 10mi
Dew Point: 41°   Wind: 13mph
Humidity: 71%   Direction: 200°SSW
Pressure: 30.02"   Gusts: 18mph
Location:  46.41°N, 86.65°W
Report Text: KSAW 231945Z 20011G16KT 10SM BKN065 BKN075 OVC095 10/05 A3002
Loading
Personal Weather Stations






























Interactive Weather Map
Tropical Storm Tracking
New forecast layout! Learn more

10-Day Weather Forecast

Advertisements
Track Severe Weather on mobile